Aviation Digital Data Service (ADDS)

Output produced by METARs form (2255 UTC 23 October 2019)
found at http://www.aviationweather.gov/metar/data/
 
Forecast for: WBGG (KUCHING (CIV/MIL, MY)
Text: TAF WBGG 231700Z 2318/2418 VRB03KT 9999 SCT020
Forecast period: 1800 UTC 23 October 2019 to 1800 UTC 24 October 2019
Forecast type: FROM: standard forecast or significant change
Winds: variable direction winds at 3 MPH (3 knots; 1.5 m/s)
Visibility: 6 or more miles 10+ km)
Ceiling: at least 12,000 feet AGL
Clouds: scattered clouds at 2000 feet AGL
Weather: no significant weather forecast for this period
Text: TEMPO 2406/2410 33010KT 3000 TSRA FEW015CB
Forecast period: 0600 to 1000 UTC 24 October 2019
Forecast type: TEMPORARY: The following changes expected for less than half the time period
Winds: from the NNW (330 degrees) at 12 MPH (10 knots; 5.1 m/s)
Visibility: 1.86 miles (2.99 km)
Ceiling: at least 12,000 feet AGL
Clouds: few clouds at 1500 feet AGL
Weather: TSRA  (rain associated with thunderstorm(s))